Motbridge, South Carolina
Current Conditions -  °F | °C
As of 1:35 PM on Monday 26 Jan 2015 (Local Time) from KSMS Reporting Station
Overcast Overcast  
Wind Chill: 55°   Ceiling: 5500
Heat Index: 55°   Visibility: 10mi
Dew Point: 37°   Wind: 13mph
Humidity: 51%   Direction: 300°WNW
Pressure: 29.62"   Gusts: NA
Location:  34.0395°N, 80.1095°W
Report Text: KSMS 261835Z AUTO 30011KT 10SM SCT044 SCT050 OVC055 13/03 A2962 RMK AO2
Loading
Personal Weather Stations






























Interactive Weather Map New forecast layout! Learn more

10-Day Weather Forecast

Advertisements
Track Severe Weather on mobile